sensor_id;sensor_type;location;lat;lon;timestamp;P1;P2;P0
50589;PMS7003;36547;50.514;30.840;2023-06-22T00:00:08;19.50;18.40;13.40
50589;PMS7003;36547;50.514;30.840;2023-06-22T00:01:13;18.50;18.40;14.10
50589;PMS7003;36547;50.514;30.840;2023-06-22T00:02:15;20.45;18.64;14.82
50589;PMS7003;36547;50.514;30.840;2023-06-22T00:03:19;20.80;19.80;15.40
50589;PMS7003;36547;50.514;30.840;2023-06-22T00:04:23;20.10;18.80;14.70
50589;PMS7003;36547;50.514;30.840;2023-06-22T00:05:26;17.18;16.82;13.91
50589;PMS7003;36547;50.514;30.840;2023-06-22T00:06:29;20.50;19.50;14.90
50589;PMS7003;36547;50.514;30.840;2023-06-22T00:07:31;22.50;21.10;16.10
50589;PMS7003;36547;50.514;30.840;2023-06-22T00:08:34;18.80;17.70;13.30
50589;PMS7003;36547;50.514;30.840;2023-06-22T00:09:36;18.20;16.80;12.10
50589;PMS7003;36547;50.514;30.840;2023-06-22T00:10:41;17.30;16.50;13.30
50589;PMS7003;36547;50.514;30.840;2023-06-22T00:11:44;19.70;19.10;13.50
50589;PMS7003;36547;50.514;30.840;2023-06-22T00:12:46;20.40;18.90;14.00
50589;PMS7003;36547;50.514;30.840;2023-06-22T00:13:48;18.40;16.80;11.60
50589;PMS7003;36547;50.514;30.840;2023-06-22T00:14:50;18.90;18.20;13.10
50589;PMS7003;36547;50.514;30.840;2023-06-22T00:15:53;17.20;15.80;13.20
50589;PMS7003;36547;50.514;30.840;2023-06-22T00:16:55;17.10;16.50;12.50
50589;PMS7003;36547;50.514;30.840;2023-06-22T00:17:57;18.20;16.30;12.60
50589;PMS7003;36547;50.514;30.840;2023-06-22T00:19:00;19.60;16.50;12.40
50589;PMS7003;36547;50.514;30.840;2023-06-22T00:20:03;17.40;17.20;13.20
50589;PMS7003;36547;50.514;30.840;2023-06-22T00:21:06;15.73;15.45;11.36
50589;PMS7003;36547;50.514;30.840;2023-06-22T00:22:08;17.00;15.40;11.00
50589;PMS7003;36547;50.514;30.840;2023-06-22T00:23:15;17.90;15.70;12.30
50589;PMS7003;36547;50.514;30.840;2023-06-22T00:24:17;5.30;4.40;1.60
50589;PMS7003;36547;50.514;30.840;2023-06-22T00:25:20;15.82;15.82;11.36
50589;PMS7003;36547;50.514;30.840;2023-06-22T00:26:23;16.40;15.80;11.90
50589;PMS7003;36547;50.514;30.840;2023-06-22T00:27:25;14.90;14.60;12.50
50589;PMS7003;36547;50.514;30.840;2023-06-22T00:28:38;16.60;16.30;12.70
50589;PMS7003;36547;50.514;30.840;2023-06-22T00:29:40;17.50;16.60;12.40
50589;PMS7003;36547;50.514;30.840;2023-06-22T00:30:43;19.70;18.40;14.10
50589;PMS7003;36547;50.514;30.840;2023-06-22T00:31:45;17.40;17.00;14.10
50589;PMS7003;36547;50.514;30.840;2023-06-22T00:32:49;18.90;17.30;12.30
50589;PMS7003;36547;50.514;30.840;2023-06-22T00:33:52;18.82;17.64;13.09
50589;PMS7003;36547;50.514;30.840;2023-06-22T00:34:54;17.10;16.50;12.90
50589;PMS7003;36547;50.514;30.840;2023-06-22T00:35:58;18.90;17.30;13.20
50589;PMS7003;36547;50.514;30.840;2023-06-22T00:37:00;19.40;18.40;14.60
50589;PMS7003;36547;50.514;30.840;2023-06-22T00:38:02;19.50;18.60;13.80
50589;PMS7003;36547;50.514;30.840;2023-06-22T00:39:05;18.20;18.00;13.50
50589;PMS7003;36547;50.514;30.840;2023-06-22T00:40:09;19.50;18.90;14.30
50589;PMS7003;36547;50.514;30.840;2023-06-22T00:41:12;18.80;16.80;13.30
50589;PMS7003;36547;50.514;30.840;2023-06-22T00:42:16;17.40;17.40;13.30
50589;PMS7003;36547;50.514;30.840;2023-06-22T00:43:19;15.80;15.30;12.30
50589;PMS7003;36547;50.514;30.840;2023-06-22T00:44:22;18.50;16.90;11.90
50589;PMS7003;36547;50.514;30.840;2023-06-22T00:45:26;18.30;18.00;14.40
50589;PMS7003;36547;50.514;30.840;2023-06-22T00:46:29;19.60;17.70;13.00
50589;PMS7003;36547;50.514;30.840;2023-06-22T00:47:31;15.60;14.50;10.80
50589;PMS7003;36547;50.514;30.840;2023-06-22T00:48:36;19.60;18.10;11.80
50589;PMS7003;36547;50.514;30.840;2023-06-22T00:49:38;20.40;18.30;13.30
50589;PMS7003;36547;50.514;30.840;2023-06-22T00:50:41;15.10;14.40;12.50
50589;PMS7003;36547;50.514;30.840;2023-06-22T00:51:44;16.82;15.73;13.00
50589;PMS7003;36547;50.514;30.840;2023-06-22T00:52:48;14.45;14.00;11.00
50589;PMS7003;36547;50.514;30.840;2023-06-22T00:53:55;15.80;15.80;11.70
50589;PMS7003;36547;50.514;30.840;2023-06-22T00:54:58;14.70;14.60;10.30
50589;PMS7003;36547;50.514;30.840;2023-06-22T00:56:01;15.40;15.30;11.50
50589;PMS7003;36547;50.514;30.840;2023-06-22T00:57:04;13.70;13.30;10.80
50589;PMS7003;36547;50.514;30.840;2023-06-22T00:58:07;15.70;14.20;10.80
50589;PMS7003;36547;50.514;30.840;2023-06-22T00:59:10;16.40;14.10;11.30
50589;PMS7003;36547;50.514;30.840;2023-06-22T01:00:14;14.90;14.90;11.10
50589;PMS7003;36547;50.514;30.840;2023-06-22T01:01:17;14.60;14.60;10.60
50589;PMS7003;36547;50.514;30.840;2023-06-22T01:02:20;15.40;15.40;11.10
50589;PMS7003;36547;50.514;30.840;2023-06-22T01:03:23;17.36;17.00;13.82
50589;PMS7003;36547;50.514;30.840;2023-06-22T01:04:33;20.60;17.70;12.70
50589;PMS7003;36547;50.514;30.840;2023-06-22T01:05:31;20.10;18.20;14.10
50589;PMS7003;36547;50.514;30.840;2023-06-22T01:06:38;16.90;15.50;12.90
50589;PMS7003;36547;50.514;30.840;2023-06-22T01:08:06;16.30;15.70;11.90
50589;PMS7003;36547;50.514;30.840;2023-06-22T01:09:25;14.80;14.50;11.00
50589;PMS7003;36547;50.514;30.840;2023-06-22T01:10:38;17.40;16.80;12.60
50589;PMS7003;36547;50.514;30.840;2023-06-22T01:11:52;16.90;16.20;11.80
50589;PMS7003;36547;50.514;30.840;2023-06-22T01:13:04;19.90;17.70;13.50
50589;PMS7003;36547;50.514;30.840;2023-06-22T01:14:13;21.60;19.70;14.00
50589;PMS7003;36547;50.514;30.840;2023-06-22T01:16:49;21.10;18.70;13.40
50589;PMS7003;36547;50.514;30.840;2023-06-22T01:17:56;18.50;17.20;12.90
50589;PMS7003;36547;50.514;30.840;2023-06-22T01:20:37;19.50;18.50;12.50
50589;PMS7003;36547;50.514;30.840;2023-06-22T01:21:41;16.80;16.30;12.70
50589;PMS7003;36547;50.514;30.840;2023-06-22T01:24:18;19.00;17.90;12.80
50589;PMS7003;36547;50.514;30.840;2023-06-22T01:25:28;16.80;16.80;12.70
50589;PMS7003;36547;50.514;30.840;2023-06-22T01:26:54;18.80;17.90;13.50
50589;PMS7003;36547;50.514;30.840;2023-06-22T01:29:26;17.60;17.50;13.10
50589;PMS7003;36547;50.514;30.840;2023-06-22T01:30:30;22.70;19.40;14.70
50589;PMS7003;36547;50.514;30.840;2023-06-22T01:31:34;20.00;20.00;16.90
50589;PMS7003;36547;50.514;30.840;2023-06-22T01:32:38;22.60;20.90;16.00
50589;PMS7003;36547;50.514;30.840;2023-06-22T01:33:43;20.90;20.10;15.60
50589;PMS7003;36547;50.514;30.840;2023-06-22T01:34:48;23.20;21.40;15.70
50589;PMS7003;36547;50.514;30.840;2023-06-22T01:35:52;23.30;22.00;15.90
50589;PMS7003;36547;50.514;30.840;2023-06-22T01:36:55;21.00;19.30;14.70
50589;PMS7003;36547;50.514;30.840;2023-06-22T01:37:58;24.40;24.30;17.70
50589;PMS7003;36547;50.514;30.840;2023-06-22T01:39:01;23.20;22.40;17.50
50589;PMS7003;36547;50.514;30.840;2023-06-22T01:40:06;24.50;21.00;16.40
50589;PMS7003;36547;50.514;30.840;2023-06-22T01:41:11;24.60;22.90;15.90
50589;PMS7003;36547;50.514;30.840;2023-06-22T01:42:14;23.50;21.80;15.70
50589;PMS7003;36547;50.514;30.840;2023-06-22T01:43:17;25.30;23.50;17.60
50589;PMS7003;36547;50.514;30.840;2023-06-22T01:44:19;24.30;21.70;15.50
50589;PMS7003;36547;50.514;30.840;2023-06-22T01:45:23;23.00;23.00;16.10
50589;PMS7003;36547;50.514;30.840;2023-06-22T01:46:27;21.90;21.70;15.30
50589;PMS7003;36547;50.514;30.840;2023-06-22T01:47:31;19.10;18.80;14.50
50589;PMS7003;36547;50.514;30.840;2023-06-22T01:48:34;21.70;20.60;15.80
50589;PMS7003;36547;50.514;30.840;2023-06-22T01:49:37;20.40;19.70;14.30
50589;PMS7003;36547;50.514;30.840;2023-06-22T01:50:39;21.00;20.70;13.90
50589;PMS7003;36547;50.514;30.840;2023-06-22T01:51:42;22.00;20.40;15.40
50589;PMS7003;36547;50.514;30.840;2023-06-22T01:52:45;19.50;19.10;14.50
50589;PMS7003;36547;50.514;30.840;2023-06-22T01:53:47;19.50;19.40;14.20
50589;PMS7003;36547;50.514;30.840;2023-06-22T01:54:50;19.70;18.00;14.00
50589;PMS7003;36547;50.514;30.840;2023-06-22T01:55:54;20.30;18.00;13.20
50589;PMS7003;36547;50.514;30.840;2023-06-22T01:56:57;19.50;17.80;13.50
50589;PMS7003;36547;50.514;30.840;2023-06-22T01:58:00;22.30;20.80;14.30
50589;PMS7003;36547;50.514;30.840;2023-06-22T01:59:05;20.90;19.20;14.90
50589;PMS7003;36547;50.514;30.840;2023-06-22T02:00:14;16.50;16.00;12.80
50589;PMS7003;36547;50.514;30.840;2023-06-22T02:02:33;21.30;20.80;16.20
50589;PMS7003;36547;50.514;30.840;2023-06-22T02:05:15;24.20;23.10;15.40
50589;PMS7003;36547;50.514;30.840;2023-06-22T02:06:21;18.50;18.50;14.60
50589;PMS7003;36547;50.514;30.840;2023-06-22T02:07:28;19.50;18.40;13.30
50589;PMS7003;36547;50.514;30.840;2023-06-22T02:08:40;22.70;21.70;16.00
50589;PMS7003;36547;50.514;30.840;2023-06-22T02:09:44;25.80;22.10;15.30
50589;PMS7003;36547;50.514;30.840;2023-06-22T02:10:50;20.70;19.90;14.10
50589;PMS7003;36547;50.514;30.840;2023-06-22T02:11:55;23.20;20.50;13.90
50589;PMS7003;36547;50.514;30.840;2023-06-22T02:12:59;21.30;21.30;15.00
50589;PMS7003;36547;50.514;30.840;2023-06-22T02:14:03;18.70;18.40;12.90
50589;PMS7003;36547;50.514;30.840;2023-06-22T02:15:08;23.50;21.30;14.50
50589;PMS7003;36547;50.514;30.840;2023-06-22T02:16:12;20.70;20.50;15.40
50589;PMS7003;36547;50.514;30.840;2023-06-22T02:17:17;23.70;22.00;16.10
50589;PMS7003;36547;50.514;30.840;2023-06-22T02:18:20;22.00;19.90;14.60
50589;PMS7003;36547;50.514;30.840;2023-06-22T02:19:23;19.00;18.70;13.70
50589;PMS7003;36547;50.514;30.840;2023-06-22T02:20:25;20.80;18.10;13.60
50589;PMS7003;36547;50.514;30.840;2023-06-22T02:21:29;18.80;18.50;14.30
50589;PMS7003;36547;50.514;30.840;2023-06-22T02:22:33;20.60;19.90;14.90
50589;PMS7003;36547;50.514;30.840;2023-06-22T02:23:36;20.10;19.70;14.50
50589;PMS7003;36547;50.514;30.840;2023-06-22T02:24:38;20.60;18.40;14.50
50589;PMS7003;36547;50.514;30.840;2023-06-22T02:25:40;21.60;19.90;13.30
50589;PMS7003;36547;50.514;30.840;2023-06-22T02:26:43;20.55;20.55;15.91
50589;PMS7003;36547;50.514;30.840;2023-06-22T02:27:46;20.60;20.00;14.60
50589;PMS7003;36547;50.514;30.840;2023-06-22T02:28:48;21.90;21.50;16.10
50589;PMS7003;36547;50.514;30.840;2023-06-22T02:29:52;21.30;20.30;14.60
50589;PMS7003;36547;50.514;30.840;2023-06-22T02:30:54;18.50;18.40;14.10
50589;PMS7003;36547;50.514;30.840;2023-06-22T02:31:57;19.90;18.10;13.60
50589;PMS7003;36547;50.514;30.840;2023-06-22T02:32:59;22.70;19.80;13.70
50589;PMS7003;36547;50.514;30.840;2023-06-22T02:34:02;21.50;19.70;13.10
50589;PMS7003;36547;50.514;30.840;2023-06-22T02:35:04;21.20;17.90;13.40
50589;PMS7003;36547;50.514;30.840;2023-06-22T02:36:08;20.50;18.60;13.70
50589;PMS7003;36547;50.514;30.840;2023-06-22T02:37:10;17.73;17.36;13.09
50589;PMS7003;36547;50.514;30.840;2023-06-22T02:38:15;17.40;16.50;11.70
50589;PMS7003;36547;50.514;30.840;2023-06-22T02:39:20;19.40;17.70;13.10
50589;PMS7003;36547;50.514;30.840;2023-06-22T02:40:24;18.30;17.40;13.10
50589;PMS7003;36547;50.514;30.840;2023-06-22T02:41:27;19.10;17.80;12.40
50589;PMS7003;36547;50.514;30.840;2023-06-22T02:42:31;15.70;15.00;12.00
50589;PMS7003;36547;50.514;30.840;2023-06-22T02:43:33;16.00;16.00;11.60
50589;PMS7003;36547;50.514;30.840;2023-06-22T02:44:36;17.60;16.60;12.40
50589;PMS7003;36547;50.514;30.840;2023-06-22T02:45:39;13.60;13.00;8.30
50589;PMS7003;36547;50.514;30.840;2023-06-22T02:46:43;15.30;14.60;11.70
50589;PMS7003;36547;50.514;30.840;2023-06-22T02:47:46;17.70;17.20;12.20
50589;PMS7003;36547;50.514;30.840;2023-06-22T02:48:48;21.80;17.60;13.10
50589;PMS7003;36547;50.514;30.840;2023-06-22T02:49:51;19.50;17.90;13.20
50589;PMS7003;36547;50.514;30.840;2023-06-22T02:50:54;18.20;17.30;13.50
50589;PMS7003;36547;50.514;30.840;2023-06-22T02:51:57;17.60;17.10;12.40
50589;PMS7003;36547;50.514;30.840;2023-06-22T02:53:01;15.30;15.30;11.50
50589;PMS7003;36547;50.514;30.840;2023-06-22T02:54:06;17.90;15.80;12.10
50589;PMS7003;36547;50.514;30.840;2023-06-22T02:55:09;17.80;15.50;12.20
50589;PMS7003;36547;50.514;30.840;2023-06-22T02:56:11;17.10;17.00;12.60
50589;PMS7003;36547;50.514;30.840;2023-06-22T02:57:14;18.70;17.10;12.70
50589;PMS7003;36547;50.514;30.840;2023-06-22T02:58:17;16.36;15.45;12.27
50589;PMS7003;36547;50.514;30.840;2023-06-22T02:59:19;21.30;18.30;12.10
50589;PMS7003;36547;50.514;30.840;2023-06-22T03:00:22;15.80;15.50;12.30
50589;PMS7003;36547;50.514;30.840;2023-06-22T03:01:26;14.00;14.00;11.40
50589;PMS7003;36547;50.514;30.840;2023-06-22T03:02:30;20.30;18.70;14.10
50589;PMS7003;36547;50.514;30.840;2023-06-22T03:03:32;16.10;14.80;12.00
50589;PMS7003;36547;50.514;30.840;2023-06-22T03:04:35;16.90;16.90;13.40
50589;PMS7003;36547;50.514;30.840;2023-06-22T03:05:38;17.91;17.64;13.64
50589;PMS7003;36547;50.514;30.840;2023-06-22T03:06:41;17.73;17.18;13.00
50589;PMS7003;36547;50.514;30.840;2023-06-22T03:07:44;19.62;18.37;15.25
50589;PMS7003;36547;50.514;30.840;2023-06-22T03:08:46;19.50;18.10;14.60
50589;PMS7003;36547;50.514;30.840;2023-06-22T03:09:49;18.20;17.50;12.90
50589;PMS7003;36547;50.514;30.840;2023-06-22T03:10:53;19.70;17.80;12.90
50589;PMS7003;36547;50.514;30.840;2023-06-22T03:11:55;15.90;14.60;10.70
50589;PMS7003;36547;50.514;30.840;2023-06-22T03:13:00;18.70;17.50;13.70
50589;PMS7003;36547;50.514;30.840;2023-06-22T03:14:02;16.50;15.90;12.40
50589;PMS7003;36547;50.514;30.840;2023-06-22T03:15:05;18.90;17.50;13.60
50589;PMS7003;36547;50.514;30.840;2023-06-22T03:16:11;16.30;16.20;12.50
50589;PMS7003;36547;50.514;30.840;2023-06-22T03:17:13;17.30;16.60;12.40
50589;PMS7003;36547;50.514;30.840;2023-06-22T03:18:16;16.60;16.60;12.90
50589;PMS7003;36547;50.514;30.840;2023-06-22T03:19:18;16.40;15.60;12.00
50589;PMS7003;36547;50.514;30.840;2023-06-22T03:20:20;16.50;15.60;11.50
50589;PMS7003;36547;50.514;30.840;2023-06-22T03:21:23;16.50;15.60;11.60
50589;PMS7003;36547;50.514;30.840;2023-06-22T03:22:27;14.50;13.90;10.50
50589;PMS7003;36547;50.514;30.840;2023-06-22T03:23:29;16.30;15.50;11.70
50589;PMS7003;36547;50.514;30.840;2023-06-22T03:24:31;15.80;13.70;10.50
50589;PMS7003;36547;50.514;30.840;2023-06-22T03:25:34;15.00;14.50;11.50
50589;PMS7003;36547;50.514;30.840;2023-06-22T03:26:37;15.40;14.80;12.10
50589;PMS7003;36547;50.514;30.840;2023-06-22T03:27:40;15.60;14.90;11.40
50589;PMS7003;36547;50.514;30.840;2023-06-22T03:28:43;15.30;14.00;11.10
50589;PMS7003;36547;50.514;30.840;2023-06-22T03:29:46;13.30;13.20;11.10
50589;PMS7003;36547;50.514;30.840;2023-06-22T03:30:48;13.40;13.40;9.80
50589;PMS7003;36547;50.514;30.840;2023-06-22T03:31:52;14.70;12.90;10.10
50589;PMS7003;36547;50.514;30.840;2023-06-22T03:32:54;12.80;12.80;10.00
50589;PMS7003;36547;50.514;30.840;2023-06-22T03:33:57;14.90;14.10;10.30
50589;PMS7003;36547;50.514;30.840;2023-06-22T03:34:59;14.00;14.00;11.30
50589;PMS7003;36547;50.514;30.840;2023-06-22T03:36:03;12.80;12.80;10.00
50589;PMS7003;36547;50.514;30.840;2023-06-22T03:37:05;15.00;13.91;11.36
50589;PMS7003;36547;50.514;30.840;2023-06-22T03:38:08;12.60;12.60;10.60
50589;PMS7003;36547;50.514;30.840;2023-06-22T03:39:10;13.80;13.60;10.60
50589;PMS7003;36547;50.514;30.840;2023-06-22T03:40:12;14.20;13.70;10.70
50589;PMS7003;36547;50.514;30.840;2023-06-22T03:41:15;12.10;11.70;9.10
50589;PMS7003;36547;50.514;30.840;2023-06-22T03:42:17;13.10;13.10;10.10
50589;PMS7003;36547;50.514;30.840;2023-06-22T03:43:21;14.70;14.10;11.30
50589;PMS7003;36547;50.514;30.840;2023-06-22T03:44:23;14.30;13.80;11.70
50589;PMS7003;36547;50.514;30.840;2023-06-22T03:45:26;17.20;15.10;10.90
50589;PMS7003;36547;50.514;30.840;2023-06-22T03:46:28;14.50;14.30;11.40
50589;PMS7003;36547;50.514;30.840;2023-06-22T03:47:31;15.00;14.00;10.30
50589;PMS7003;36547;50.514;30.840;2023-06-22T03:48:34;14.90;14.90;11.70
50589;PMS7003;36547;50.514;30.840;2023-06-22T03:49:36;16.80;15.00;11.60
50589;PMS7003;36547;50.514;30.840;2023-06-22T03:50:39;16.40;16.40;13.00
50589;PMS7003;36547;50.514;30.840;2023-06-22T03:51:42;14.90;14.90;12.00
50589;PMS7003;36547;50.514;30.840;2023-06-22T03:52:45;17.50;16.70;12.50
50589;PMS7003;36547;50.514;30.840;2023-06-22T03:53:47;16.20;14.20;11.50
50589;PMS7003;36547;50.514;30.840;2023-06-22T03:54:50;16.90;14.70;12.10
50589;PMS7003;36547;50.514;30.840;2023-06-22T03:55:53;20.70;18.70;13.90
50589;PMS7003;36547;50.514;30.840;2023-06-22T03:56:57;17.60;16.20;12.50
50589;PMS7003;36547;50.514;30.840;2023-06-22T03:58:00;16.90;15.70;11.90
50589;PMS7003;36547;50.514;30.840;2023-06-22T03:59:02;18.70;17.00;12.60
50589;PMS7003;36547;50.514;30.840;2023-06-22T04:00:05;18.90;17.00;14.00
50589;PMS7003;36547;50.514;30.840;2023-06-22T04:01:09;17.30;15.40;12.00
50589;PMS7003;36547;50.514;30.840;2023-06-22T04:02:12;16.20;15.60;12.50
50589;PMS7003;36547;50.514;30.840;2023-06-22T04:03:14;17.60;16.10;12.00
50589;PMS7003;36547;50.514;30.840;2023-06-22T04:04:18;16.10;14.90;11.40
50589;PMS7003;36547;50.514;30.840;2023-06-22T04:05:20;17.40;15.70;12.60
50589;PMS7003;36547;50.514;30.840;2023-06-22T04:06:23;16.10;15.40;12.20
50589;PMS7003;36547;50.514;30.840;2023-06-22T04:07:25;15.50;14.90;12.10
50589;PMS7003;36547;50.514;30.840;2023-06-22T04:08:27;16.20;14.50;12.00
50589;PMS7003;36547;50.514;30.840;2023-06-22T04:09:29;16.56;14.89;10.78
50589;PMS7003;36547;50.514;30.840;2023-06-22T04:10:32;17.60;16.50;13.80
50589;PMS7003;36547;50.514;30.840;2023-06-22T04:11:35;16.73;16.73;12.27
50589;PMS7003;36547;50.514;30.840;2023-06-22T04:12:37;16.10;14.80;12.40
50589;PMS7003;36547;50.514;30.840;2023-06-22T04:13:40;17.40;16.80;13.30
50589;PMS7003;36547;50.514;30.840;2023-06-22T04:14:42;18.00;15.30;12.40
50589;PMS7003;36547;50.514;30.840;2023-06-22T04:15:45;17.50;15.90;12.20
50589;PMS7003;36547;50.514;30.840;2023-06-22T04:16:47;19.60;18.60;14.50
50589;PMS7003;36547;50.514;30.840;2023-06-22T04:17:49;18.50;17.10;13.30
50589;PMS7003;36547;50.514;30.840;2023-06-22T04:18:52;17.70;16.10;12.80
50589;PMS7003;36547;50.514;30.840;2023-06-22T04:19:54;18.50;17.80;14.10
50589;PMS7003;36547;50.514;30.840;2023-06-22T04:20:57;19.80;18.00;13.20
50589;PMS7003;36547;50.514;30.840;2023-06-22T04:21:59;11.60;11.60;7.60
50589;PMS7003;36547;50.514;30.840;2023-06-22T04:23:01;18.20;17.60;12.60
50589;PMS7003;36547;50.514;30.840;2023-06-22T04:24:04;18.80;18.10;12.60
50589;PMS7003;36547;50.514;30.840;2023-06-22T04:25:07;17.80;17.80;14.10
50589;PMS7003;36547;50.514;30.840;2023-06-22T04:26:10;16.90;16.40;12.90
50589;PMS7003;36547;50.514;30.840;2023-06-22T04:27:12;18.70;17.90;13.40
50589;PMS7003;36547;50.514;30.840;2023-06-22T04:28:14;21.00;18.90;14.50
50589;PMS7003;36547;50.514;30.840;2023-06-22T04:29:17;21.50;21.30;16.20
50589;PMS7003;36547;50.514;30.840;2023-06-22T04:30:19;21.10;20.30;15.40
50589;PMS7003;36547;50.514;30.840;2023-06-22T04:31:22;19.80;17.20;13.50
50589;PMS7003;36547;50.514;30.840;2023-06-22T04:32:24;19.30;17.80;14.00
50589;PMS7003;36547;50.514;30.840;2023-06-22T04:33:26;20.50;18.10;13.70
50589;PMS7003;36547;50.514;30.840;2023-06-22T04:34:29;20.60;18.60;13.50
50589;PMS7003;36547;50.514;30.840;2023-06-22T04:35:31;15.20;15.00;11.70
50589;PMS7003;36547;50.514;30.840;2023-06-22T04:36:34;20.80;20.00;14.60
50589;PMS7003;36547;50.514;30.840;2023-06-22T04:37:38;19.50;19.50;14.00
50589;PMS7003;36547;50.514;30.840;2023-06-22T04:38:41;19.40;19.40;14.80
50589;PMS7003;36547;50.514;30.840;2023-06-22T04:39:44;22.80;21.50;16.30
50589;PMS7003;36547;50.514;30.840;2023-06-22T04:40:46;21.00;19.70;15.70
50589;PMS7003;36547;50.514;30.840;2023-06-22T04:41:50;19.80;18.30;14.10
50589;PMS7003;36547;50.514;30.840;2023-06-22T04:42:52;21.10;20.70;15.60
50589;PMS7003;36547;50.514;30.840;2023-06-22T04:43:55;25.50;23.50;17.10
50589;PMS7003;36547;50.514;30.840;2023-06-22T04:44:57;24.10;23.70;17.90
50589;PMS7003;36547;50.514;30.840;2023-06-22T04:46:01;25.30;22.40;17.00
50589;PMS7003;36547;50.514;30.840;2023-06-22T04:47:04;24.40;23.30;17.20
50589;PMS7003;36547;50.514;30.840;2023-06-22T04:48:06;23.60;22.20;17.90
50589;PMS7003;36547;50.514;30.840;2023-06-22T04:49:09;29.70;27.20;18.30
50589;PMS7003;36547;50.514;30.840;2023-06-22T04:50:12;23.40;21.70;17.00
50589;PMS7003;36547;50.514;30.840;2023-06-22T04:51:15;24.40;24.40;17.30
50589;PMS7003;36547;50.514;30.840;2023-06-22T04:52:17;23.40;23.40;17.50
50589;PMS7003;36547;50.514;30.840;2023-06-22T04:53:20;25.30;23.50;17.80
50589;PMS7003;36547;50.514;30.840;2023-06-22T04:54:22;25.30;24.30;18.30
50589;PMS7003;36547;50.514;30.840;2023-06-22T04:55:25;21.40;19.60;14.40
50589;PMS7003;36547;50.514;30.840;2023-06-22T04:56:27;22.10;21.40;14.90
50589;PMS7003;36547;50.514;30.840;2023-06-22T04:57:29;24.80;23.20;18.70
50589;PMS7003;36547;50.514;30.840;2023-06-22T04:58:32;24.73;23.36;18.09
50589;PMS7003;36547;50.514;30.840;2023-06-22T04:59:35;25.40;24.80;19.40
50589;PMS7003;36547;50.514;30.840;2023-06-22T05:00:38;23.90;23.40;17.90
50589;PMS7003;36547;50.514;30.840;2023-06-22T05:01:41;28.10;27.00;18.50
50589;PMS7003;36547;50.514;30.840;2023-06-22T05:02:44;26.18;24.64;17.91
50589;PMS7003;36547;50.514;30.840;2023-06-22T05:03:48;26.50;25.80;19.20
50589;PMS7003;36547;50.514;30.840;2023-06-22T05:04:50;24.00;24.00;18.00
50589;PMS7003;36547;50.514;30.840;2023-06-22T05:05:54;24.30;23.90;17.70
50589;PMS7003;36547;50.514;30.840;2023-06-22T05:06:57;23.50;22.50;17.30
50589;PMS7003;36547;50.514;30.840;2023-06-22T05:08:01;24.20;24.20;18.30
50589;PMS7003;36547;50.514;30.840;2023-06-22T05:09:03;30.10;27.10;19.30
50589;PMS7003;36547;50.514;30.840;2023-06-22T05:10:06;23.50;22.30;16.90
50589;PMS7003;36547;50.514;30.840;2023-06-22T05:11:09;24.40;23.70;17.80
50589;PMS7003;36547;50.514;30.840;2023-06-22T05:12:12;25.64;24.45;16.82
50589;PMS7003;36547;50.514;30.840;2023-06-22T05:13:14;26.10;26.10;18.70
50589;PMS7003;36547;50.514;30.840;2023-06-22T05:14:17;23.20;23.20;18.00
50589;PMS7003;36547;50.514;30.840;2023-06-22T05:15:20;22.27;21.09;15.64
50589;PMS7003;36547;50.514;30.840;2023-06-22T05:16:23;28.50;26.80;20.20
50589;PMS7003;36547;50.514;30.840;2023-06-22T05:17:26;28.30;26.50;19.30
50589;PMS7003;36547;50.514;30.840;2023-06-22T05:18:30;26.55;24.91;18.00
50589;PMS7003;36547;50.514;30.840;2023-06-22T05:19:33;27.80;24.10;16.90
50589;PMS7003;36547;50.514;30.840;2023-06-22T05:20:37;27.30;25.10;17.60
50589;PMS7003;36547;50.514;30.840;2023-06-22T05:21:39;25.20;23.20;16.70
50589;PMS7003;36547;50.514;30.840;2023-06-22T05:22:42;22.60;22.10;17.30
50589;PMS7003;36547;50.514;30.840;2023-06-22T05:23:44;24.10;22.80;16.20
50589;PMS7003;36547;50.514;30.840;2023-06-22T05:24:47;24.80;24.00;18.60
50589;PMS7003;36547;50.514;30.840;2023-06-22T05:25:51;26.00;25.70;19.50
50589;PMS7003;36547;50.514;30.840;2023-06-22T05:26:54;25.50;25.50;17.90
50589;PMS7003;36547;50.514;30.840;2023-06-22T05:27:57;25.00;25.00;18.40
50589;PMS7003;36547;50.514;30.840;2023-06-22T05:29:00;26.40;25.10;17.80
50589;PMS7003;36547;50.514;30.840;2023-06-22T05:30:03;25.30;23.50;18.20
50589;PMS7003;36547;50.514;30.840;2023-06-22T05:31:06;24.30;22.90;18.10
50589;PMS7003;36547;50.514;30.840;2023-06-22T05:32:08;24.70;22.00;17.10
50589;PMS7003;36547;50.514;30.840;2023-06-22T05:33:11;24.90;23.40;17.60
50589;PMS7003;36547;50.514;30.840;2023-06-22T05:34:13;26.00;24.00;18.00
50589;PMS7003;36547;50.514;30.840;2023-06-22T05:35:16;23.20;23.00;17.80
50589;PMS7003;36547;50.514;30.840;2023-06-22T05:36:18;23.50;22.40;17.80
50589;PMS7003;36547;50.514;30.840;2023-06-22T05:37:20;23.60;23.40;17.00
50589;PMS7003;36547;50.514;30.840;2023-06-22T05:38:23;26.20;25.50;18.50
50589;PMS7003;36547;50.514;30.840;2023-06-22T05:39:26;22.10;22.10;14.90
50589;PMS7003;36547;50.514;30.840;2023-06-22T05:40:29;26.50;23.30;17.30
50589;PMS7003;36547;50.514;30.840;2023-06-22T05:41:32;24.73;21.00;15.82
50589;PMS7003;36547;50.514;30.840;2023-06-22T05:42:34;23.10;22.30;17.50
50589;PMS7003;36547;50.514;30.840;2023-06-22T05:43:37;22.82;21.45;15.36
50589;PMS7003;36547;50.514;30.840;2023-06-22T05:44:39;23.50;21.80;17.50
50589;PMS7003;36547;50.514;30.840;2023-06-22T05:45:42;21.50;20.50;15.00
50589;PMS7003;36547;50.514;30.840;2023-06-22T05:46:45;19.36;19.36;15.55
50589;PMS7003;36547;50.514;30.840;2023-06-22T05:47:47;26.80;24.50;17.40
50589;PMS7003;36547;50.514;30.840;2023-06-22T05:48:49;21.50;21.40;17.00
50589;PMS7003;36547;50.514;30.840;2023-06-22T05:49:52;24.30;22.70;16.80
50589;PMS7003;36547;50.514;30.840;2023-06-22T05:50:54;24.70;23.30;16.10
50589;PMS7003;36547;50.514;30.840;2023-06-22T05:51:57;22.10;21.80;15.90
50589;PMS7003;36547;50.514;30.840;2023-06-22T05:52:59;23.80;21.90;17.30
50589;PMS7003;36547;50.514;30.840;2023-06-22T05:54:01;22.10;20.20;16.50
50589;PMS7003;36547;50.514;30.840;2023-06-22T05:55:04;23.00;22.30;17.10
50589;PMS7003;36547;50.514;30.840;2023-06-22T05:56:07;21.20;21.00;14.90
50589;PMS7003;36547;50.514;30.840;2023-06-22T05:57:10;23.70;21.80;16.50
50589;PMS7003;36547;50.514;30.840;2023-06-22T05:58:13;22.30;20.80;16.40
50589;PMS7003;36547;50.514;30.840;2023-06-22T05:59:15;20.60;20.60;15.10